PWSweather.com
Personal Weather Stations
Station Observations
KMIEASTT1
Tawas Bay, East Tawas, MI 48730

Tawas BayEast Tawas, MI 48730

Lat: 44.28, Lon: -83.48

Elevation: 600

Station Type: Davis VantagePro

http://www.tawasbayweather.com

High Low Average
Temperature 35.4°F1.9°C 19.1°F-7.2°C 27.8°F-2.3°C
Dew Point 26.3°F-3.2°C 16.4°F-8.7°C 21.3°F-5.9°C
Winds 15.0 mph 24.1 kmh 1.0 mph 1.6 kmh 7.0 mph WNW11.3 kmh WNW
Wind Gusts 18.0 mph29.0 kmh 4.0 mph6.4 kmh 10.0 mph16.1 kmh
Humidity 89% 59% 77%
Pressure 30.47 in1031.8 mb 30.25 in1024.4 mb -
Precipitation 0.00 in0.0 mm - -
Hour Temp Dew Point Humidity Winds Wind Gusts Pressure Precip Precip Rate Daily Precip Total
12:00 AM 23.3°F-4.8°C 20.0°F-6.7°C 87% 4.0 mph NW6.4 kmh NW 8.0 mph12.9 kmh 30.34 in1027.4 mb 0.00 in0.0 mm 0.00 in0.0 mm 0.00 in0.0 mm
12:15 AM 23.2°F-4.9°C 19.6°F-6.9°C 86% 4.0 mph NNW6.4 kmh NNW 9.0 mph14.5 kmh 30.35 in1027.8 mb 0.00 in0.0 mm 0.00 in0.0 mm 0.00 in0.0 mm
12:30 AM 23.1°F-4.9°C 19.3°F-7.1°C 85% 3.0 mph NNW4.8 kmh NNW 10.0 mph16.1 kmh 30.35 in1027.8 mb 0.00 in0.0 mm 0.00 in0.0 mm 0.00 in0.0 mm
12:45 AM 22.7°F-5.2°C 18.9°F-7.3°C 85% 3.0 mph N4.8 kmh N 12.0 mph19.3 kmh 30.35 in1027.8 mb 0.00 in0.0 mm 0.00 in0.0 mm 0.00 in0.0 mm
01:00 AM 22.4°F-5.3°C 18.9°F-7.3°C 86% 3.0 mph NW4.8 kmh NW 7.0 mph11.3 kmh 30.35 in1027.8 mb 0.00 in0.0 mm 0.00 in0.0 mm 0.00 in0.0 mm
01:15 AM 22.1°F-5.5°C 18.6°F-7.4°C 86% 3.0 mph N4.8 kmh N 7.0 mph11.3 kmh 30.35 in1027.8 mb 0.00 in0.0 mm 0.00 in0.0 mm 0.00 in0.0 mm
01:30 AM 21.9°F-5.6°C 18.4°F-7.6°C 86% 5.0 mph N8.0 kmh N 8.0 mph12.9 kmh 30.36 in1028.1 mb 0.00 in0.0 mm 0.00 in0.0 mm 0.00 in0.0 mm
01:45 AM 21.9°F-5.6°C 18.4°F-7.6°C 86% 4.0 mph NNW6.4 kmh NNW 8.0 mph12.9 kmh 30.35 in1027.8 mb 0.00 in0.0 mm 0.00 in0.0 mm 0.00 in0.0 mm
02:00 AM 21.7°F-5.7°C 18.2°F-7.7°C 86% 5.0 mph NNW8.0 kmh NNW 8.0 mph12.9 kmh 30.36 in1028.1 mb 0.00 in0.0 mm 0.00 in0.0 mm 0.00 in0.0 mm
02:15 AM 21.5°F-5.8°C 18.0°F-7.8°C 86% 3.0 mph NNW4.8 kmh NNW 7.0 mph11.3 kmh 30.36 in1028.1 mb 0.00 in0.0 mm 0.00 in0.0 mm 0.00 in0.0 mm
02:30 AM 21.3°F-5.9°C 17.8°F-7.9°C 86% 4.0 mph NNW6.4 kmh NNW 7.0 mph11.3 kmh 30.37 in1028.4 mb 0.00 in0.0 mm 0.00 in0.0 mm 0.00 in0.0 mm
02:45 AM 21.0°F-6.1°C 17.8°F-7.9°C 87% 3.0 mph N4.8 kmh N 5.0 mph8.0 kmh 30.37 in1028.4 mb 0.00 in0.0 mm 0.00 in0.0 mm 0.00 in0.0 mm
03:00 AM 21.0°F-6.1°C 17.8°F-7.9°C 87% 3.0 mph N4.8 kmh N 6.0 mph9.7 kmh 30.37 in1028.4 mb 0.00 in0.0 mm 0.00 in0.0 mm 0.00 in0.0 mm
03:15 AM 20.9°F-6.2°C 17.9°F-7.8°C 88% 3.0 mph N4.8 kmh N 7.0 mph11.3 kmh 30.37 in1028.4 mb 0.00 in0.0 mm 0.00 in0.0 mm 0.00 in0.0 mm
03:30 AM 20.8°F-6.2°C 18.1°F-7.7°C 89% 6.0 mph NNW9.7 kmh NNW 9.0 mph14.5 kmh 30.38 in1028.8 mb 0.00 in0.0 mm 0.00 in0.0 mm 0.00 in0.0 mm
03:45 AM 20.9°F-6.2°C 17.9°F-7.8°C 88% 5.0 mph NNW8.0 kmh NNW 8.0 mph12.9 kmh 30.38 in1028.8 mb 0.00 in0.0 mm 0.00 in0.0 mm 0.00 in0.0 mm
04:00 AM 20.8°F-6.2°C 17.8°F-7.9°C 88% 3.0 mph NNW4.8 kmh NNW 6.0 mph9.7 kmh 30.38 in1028.8 mb 0.00 in0.0 mm 0.00 in0.0 mm 0.00 in0.0 mm
04:15 AM 20.7°F-6.3°C 17.7°F-7.9°C 88% 4.0 mph N6.4 kmh N 7.0 mph11.3 kmh 30.38 in1028.8 mb 0.00 in0.0 mm 0.00 in0.0 mm 0.00 in0.0 mm
04:30 AM 20.5°F-6.4°C 17.5°F-8.1°C 88% 2.0 mph N3.2 kmh N 6.0 mph9.7 kmh 30.40 in1029.5 mb 0.00 in0.0 mm 0.00 in0.0 mm 0.00 in0.0 mm
04:45 AM 20.4°F-6.4°C 17.4°F-8.1°C 88% 3.0 mph NNW4.8 kmh NNW 6.0 mph9.7 kmh 30.40 in1029.5 mb 0.00 in0.0 mm 0.00 in0.0 mm 0.00 in0.0 mm
05:00 AM 20.4°F-6.4°C 17.4°F-8.1°C 88% 4.0 mph NNW6.4 kmh NNW 6.0 mph9.7 kmh 30.41 in1029.8 mb 0.00 in0.0 mm 0.00 in0.0 mm 0.00 in0.0 mm
05:15 AM 20.2°F-6.6°C 17.0°F-8.3°C 87% 2.0 mph N3.2 kmh N 4.0 mph6.4 kmh 30.41 in1029.8 mb 0.00 in0.0 mm 0.00 in0.0 mm 0.00 in0.0 mm
05:30 AM 19.8°F-6.8°C 16.8°F-8.4°C 88% 4.0 mph NW6.4 kmh NW 4.0 mph6.4 kmh 30.41 in1029.8 mb 0.00 in0.0 mm 0.00 in0.0 mm 0.00 in0.0 mm
05:45 AM 19.6°F-6.9°C 16.6°F-8.6°C 88% 2.0 mph NW3.2 kmh NW 6.0 mph9.7 kmh 30.42 in1030.1 mb 0.00 in0.0 mm 0.00 in0.0 mm 0.00 in0.0 mm
06:00 AM 19.5°F-6.9°C 16.5°F-8.6°C 88% 2.0 mph N3.2 kmh N 5.0 mph8.0 kmh 30.42 in1030.1 mb 0.00 in0.0 mm 0.00 in0.0 mm 0.00 in0.0 mm
06:15 AM 19.2°F-7.1°C 16.5°F-8.6°C 89% 3.0 mph NNW4.8 kmh NNW 6.0 mph9.7 kmh 30.42 in1030.1 mb 0.00 in0.0 mm 0.00 in0.0 mm 0.00 in0.0 mm
06:30 AM 19.2°F-7.1°C 16.5°F-8.6°C 89% 5.0 mph NNW8.0 kmh NNW 7.0 mph11.3 kmh 30.42 in1030.1 mb 0.00 in0.0 mm 0.00 in0.0 mm 0.00 in0.0 mm
06:45 AM 19.3°F-7.1°C 16.6°F-8.6°C 89% 4.0 mph NNW6.4 kmh NNW 6.0 mph9.7 kmh 30.42 in1030.1 mb 0.00 in0.0 mm 0.00 in0.0 mm 0.00 in0.0 mm
07:00 AM 19.1°F-7.2°C 16.4°F-8.7°C 89% 3.0 mph NNW4.8 kmh NNW 6.0 mph9.7 kmh 30.43 in1030.5 mb 0.00 in0.0 mm 0.00 in0.0 mm 0.00 in0.0 mm
07:15 AM 19.1°F-7.2°C 16.4°F-8.7°C 89% 4.0 mph NNW6.4 kmh NNW 7.0 mph11.3 kmh 30.43 in1030.5 mb 0.00 in0.0 mm 0.00 in0.0 mm 0.00 in0.0 mm
07:30 AM 19.3°F-7.1°C 16.6°F-8.6°C 89% 1.0 mph NNW1.6 kmh NNW 5.0 mph8.0 kmh 30.44 in1030.8 mb 0.00 in0.0 mm 0.00 in0.0 mm 0.00 in0.0 mm
07:45 AM 21.3°F-5.9°C 18.3°F-7.6°C 88% 3.0 mph NNW4.8 kmh NNW 6.0 mph9.7 kmh 30.44 in1030.8 mb 0.00 in0.0 mm 0.00 in0.0 mm 0.00 in0.0 mm
08:00 AM 23.6°F-4.7°C 18.9°F-7.3°C 82% 4.0 mph NW6.4 kmh NW 8.0 mph12.9 kmh 30.45 in1031.2 mb 0.00 in0.0 mm 0.00 in0.0 mm 0.00 in0.0 mm
08:15 AM 25.2°F-3.8°C 19.6°F-6.9°C 79% 3.0 mph NNW4.8 kmh NNW 5.0 mph8.0 kmh 30.45 in1031.2 mb 0.00 in0.0 mm 0.00 in0.0 mm 0.00 in0.0 mm
08:30 AM 27.3°F-2.6°C 21.1°F-6.1°C 77% 4.0 mph N6.4 kmh N 5.0 mph8.0 kmh 30.45 in1031.2 mb 0.00 in0.0 mm 0.00 in0.0 mm 0.00 in0.0 mm
08:45 AM 27.7°F-2.4°C 21.1°F-6.1°C 76% 3.0 mph NNW4.8 kmh NNW 6.0 mph9.7 kmh 30.45 in1031.2 mb 0.00 in0.0 mm 0.00 in0.0 mm 0.00 in0.0 mm
09:00 AM 28.3°F-2.1°C 20.8°F-6.2°C 73% 3.0 mph N4.8 kmh N 8.0 mph12.9 kmh 30.46 in1031.5 mb 0.00 in0.0 mm 0.00 in0.0 mm 0.00 in0.0 mm
09:15 AM 28.8°F-1.8°C 21.6°F-5.8°C 74% 3.0 mph S4.8 kmh S 6.0 mph9.7 kmh 30.46 in1031.5 mb 0.01 in0.3 mm 0.04 in1.0 mm 0.01 in0.3 mm
09:30 AM 29.7°F-1.3°C 22.1°F-5.5°C 73% 3.0 mph SSE4.8 kmh SSE 8.0 mph12.9 kmh 30.46 in1031.5 mb 0.00 in0.0 mm 0.00 in0.0 mm 0.01 in0.3 mm
09:45 AM 30.2°F-1.0°C 22.3°F-5.4°C 72% 3.0 mph NNW4.8 kmh NNW 6.0 mph9.7 kmh 30.46 in1031.5 mb 0.00 in0.0 mm 0.00 in0.0 mm 0.01 in0.3 mm
10:00 AM 30.6°F-0.8°C 23.0°F-5.0°C 73% 5.0 mph NNW8.0 kmh NNW 8.0 mph12.9 kmh 30.47 in1031.8 mb 0.00 in0.0 mm 0.00 in0.0 mm 0.01 in0.3 mm
10:15 AM 31.3°F-0.4°C 23.0°F-5.0°C 71% 5.0 mph NW8.0 kmh NW 9.0 mph14.5 kmh 30.46 in1031.5 mb 0.01 in0.3 mm 0.04 in1.0 mm 0.02 in0.5 mm
10:30 AM 31.9°F-0.1°C 22.9°F-5.1°C 69% 5.0 mph N8.0 kmh N 8.0 mph12.9 kmh 30.46 in1031.5 mb 0.01 in0.3 mm 0.00 in0.0 mm 0.02 in0.5 mm
10:45 AM 32.2°F0.1°C 23.2°F-4.9°C 69% 4.0 mph NNW6.4 kmh NNW 6.0 mph9.7 kmh 30.47 in1031.8 mb 0.00 in0.0 mm 0.00 in0.0 mm 0.02 in0.5 mm
11:00 AM 33.9°F1.1°C 25.2°F-3.8°C 70% 3.0 mph N4.8 kmh N 4.0 mph6.4 kmh 30.47 in1031.8 mb 0.00 in0.0 mm 0.00 in0.0 mm 0.02 in0.5 mm
11:15 AM 34.1°F1.2°C 25.4°F-3.7°C 70% 8.0 mph WNW12.9 kmh WNW 8.0 mph12.9 kmh 30.46 in1031.5 mb 0.00 in0.0 mm 0.00 in0.0 mm 0.02 in0.5 mm
11:30 AM 33.4°F0.8°C 24.0°F-4.4°C 68% 3.0 mph N4.8 kmh N 5.0 mph8.0 kmh 30.46 in1031.5 mb 0.00 in0.0 mm 0.00 in0.0 mm 0.02 in0.5 mm
11:45 AM 34.1°F1.2°C 23.6°F-4.7°C 65% 5.0 mph NNW8.0 kmh NNW 8.0 mph12.9 kmh 30.45 in1031.2 mb 0.00 in0.0 mm 0.00 in0.0 mm 0.02 in0.5 mm
12:00 PM 34.0°F1.1°C 23.9°F-4.5°C 66% 6.0 mph W9.7 kmh W 8.0 mph12.9 kmh 30.44 in1030.8 mb 0.00 in0.0 mm 0.00 in0.0 mm 0.02 in0.5 mm
12:15 PM 33.7°F0.9°C 22.5°F-5.3°C 63% 7.0 mph WSW11.3 kmh WSW 12.0 mph19.3 kmh 30.44 in1030.8 mb 0.00 in0.0 mm 0.00 in0.0 mm 0.02 in0.5 mm
12:30 PM 33.7°F0.9°C 22.5°F-5.3°C 63% 1.0 mph N1.6 kmh N 9.0 mph14.5 kmh 30.43 in1030.5 mb 0.00 in0.0 mm 0.00 in0.0 mm 0.02 in0.5 mm
12:45 PM 33.1°F0.6°C 22.3°F-5.4°C 64% 4.0 mph W6.4 kmh W 9.0 mph14.5 kmh 30.42 in1030.1 mb 0.00 in0.0 mm 0.00 in0.0 mm 0.02 in0.5 mm
01:00 PM 35.4°F1.9°C 25.2°F-3.8°C 66% 12.0 mph W19.3 kmh W 15.0 mph24.1 kmh 30.42 in1030.1 mb 0.00 in0.0 mm 0.00 in0.0 mm 0.02 in0.5 mm
01:15 PM 34.0°F1.1°C 25.3°F-3.7°C 70% 10.0 mph WSW16.1 kmh WSW 14.0 mph22.5 kmh 30.42 in1030.1 mb 0.00 in0.0 mm 0.00 in0.0 mm 0.02 in0.5 mm
01:30 PM 32.9°F0.5°C 24.9°F-3.9°C 72% 10.0 mph W16.1 kmh W 13.0 mph20.9 kmh 30.42 in1030.1 mb 0.00 in0.0 mm 0.00 in0.0 mm 0.02 in0.5 mm
01:45 PM 32.0°F0.0°C 22.3°F-5.4°C 67% 12.0 mph W19.3 kmh W 15.0 mph24.1 kmh 30.41 in1029.8 mb 0.00 in0.0 mm 0.00 in0.0 mm 0.02 in0.5 mm
02:00 PM 31.8°F-0.1°C 20.3°F-6.5°C 62% 5.0 mph WNW8.0 kmh WNW 14.0 mph22.5 kmh 30.41 in1029.8 mb 0.00 in0.0 mm 0.00 in0.0 mm 0.02 in0.5 mm
02:15 PM 31.9°F-0.1°C 20.0°F-6.7°C 61% 8.0 mph NW12.9 kmh NW 12.0 mph19.3 kmh 30.40 in1029.5 mb 0.00 in0.0 mm 0.00 in0.0 mm 0.02 in0.5 mm
02:30 PM 32.3°F0.2°C 20.8°F-6.2°C 62% 5.0 mph NW8.0 kmh NW 9.0 mph14.5 kmh 30.39 in1029.1 mb 0.00 in0.0 mm 0.00 in0.0 mm 0.02 in0.5 mm
02:45 PM 33.2°F0.7°C 20.4°F-6.4°C 59% 11.0 mph W17.7 kmh W 12.0 mph19.3 kmh 30.39 in1029.1 mb 0.00 in0.0 mm 0.00 in0.0 mm 0.02 in0.5 mm
03:00 PM 32.7°F0.4°C 24.4°F-4.2°C 71% 11.0 mph WSW17.7 kmh WSW 16.0 mph25.7 kmh 30.39 in1029.1 mb 0.00 in0.0 mm 0.00 in0.0 mm 0.02 in0.5 mm
03:15 PM 32.4°F0.2°C 20.9°F-6.2°C 62% 10.0 mph W16.1 kmh W 14.0 mph22.5 kmh 30.38 in1028.8 mb 0.00 in0.0 mm 0.00 in0.0 mm 0.02 in0.5 mm
03:30 PM 32.8°F0.4°C 22.0°F-5.6°C 64% 15.0 mph W24.1 kmh W 15.0 mph24.1 kmh 30.38 in1028.8 mb 0.00 in0.0 mm 0.00 in0.0 mm 0.02 in0.5 mm
03:45 PM 32.6°F0.3°C 23.9°F-4.5°C 70% 12.0 mph W19.3 kmh W 15.0 mph24.1 kmh 30.38 in1028.8 mb 0.00 in0.0 mm 0.00 in0.0 mm 0.02 in0.5 mm
04:00 PM 32.3°F0.2°C 23.6°F-4.7°C 70% 11.0 mph W17.7 kmh W 13.0 mph20.9 kmh 30.38 in1028.8 mb 0.00 in0.0 mm 0.00 in0.0 mm 0.02 in0.5 mm
04:15 PM 32.4°F0.2°C 22.3°F-5.4°C 66% 11.0 mph W17.7 kmh W 12.0 mph19.3 kmh 30.38 in1028.8 mb 0.00 in0.0 mm 0.00 in0.0 mm 0.02 in0.5 mm
04:30 PM 31.4°F-0.3°C 22.8°F-5.1°C 70% 10.0 mph W16.1 kmh W 12.0 mph19.3 kmh 30.37 in1028.4 mb 0.00 in0.0 mm 0.00 in0.0 mm 0.02 in0.5 mm
04:45 PM 31.0°F-0.6°C 21.0°F-6.1°C 66% 6.0 mph W9.7 kmh W 9.0 mph14.5 kmh 30.37 in1028.4 mb 0.00 in0.0 mm 0.00 in0.0 mm 0.02 in0.5 mm
05:00 PM 31.2°F-0.4°C 22.6°F-5.2°C 70% 9.0 mph WSW14.5 kmh WSW 11.0 mph17.7 kmh 30.36 in1028.1 mb 0.00 in0.0 mm 0.00 in0.0 mm 0.02 in0.5 mm
05:15 PM 30.8°F-0.7°C 21.5°F-5.8°C 68% 8.0 mph W12.9 kmh W 11.0 mph17.7 kmh 30.36 in1028.1 mb 0.00 in0.0 mm 0.00 in0.0 mm 0.02 in0.5 mm
05:30 PM 30.7°F-0.7°C 22.8°F-5.1°C 72% 8.0 mph WSW12.9 kmh WSW 10.0 mph16.1 kmh 30.36 in1028.1 mb 0.00 in0.0 mm 0.00 in0.0 mm 0.02 in0.5 mm
05:45 PM 30.6°F-0.8°C 21.3°F-5.9°C 68% 4.0 mph W6.4 kmh W 8.0 mph12.9 kmh 30.36 in1028.1 mb 0.00 in0.0 mm 0.00 in0.0 mm 0.02 in0.5 mm
06:00 PM 30.9°F-0.6°C 22.6°F-5.2°C 71% 7.0 mph WSW11.3 kmh WSW 11.0 mph17.7 kmh 30.36 in1028.1 mb 0.00 in0.0 mm 0.00 in0.0 mm 0.02 in0.5 mm
06:15 PM 31.4°F-0.3°C 23.8°F-4.6°C 73% 6.0 mph WSW9.7 kmh WSW 11.0 mph17.7 kmh 30.36 in1028.1 mb 0.00 in0.0 mm 0.00 in0.0 mm 0.02 in0.5 mm
06:30 PM 31.6°F-0.2°C 24.3°F-4.3°C 74% 12.0 mph WSW19.3 kmh WSW 15.0 mph24.1 kmh 30.35 in1027.8 mb 0.00 in0.0 mm 0.00 in0.0 mm 0.02 in0.5 mm
06:45 PM 31.5°F-0.3°C 24.2°F-4.3°C 74% 10.0 mph WSW16.1 kmh WSW 15.0 mph24.1 kmh 30.36 in1028.1 mb 0.00 in0.0 mm 0.00 in0.0 mm 0.02 in0.5 mm
07:00 PM 31.3°F-0.4°C 23.7°F-4.6°C 73% 14.0 mph WSW22.5 kmh WSW 16.0 mph25.7 kmh 30.35 in1027.8 mb 0.00 in0.0 mm 0.00 in0.0 mm 0.02 in0.5 mm
07:15 PM 31.2°F-0.4°C 23.9°F-4.5°C 74% 11.0 mph WSW17.7 kmh WSW 15.0 mph24.1 kmh 30.35 in1027.8 mb 0.00 in0.0 mm 0.00 in0.0 mm 0.02 in0.5 mm
07:30 PM 31.1°F-0.5°C 24.1°F-4.4°C 75% 10.0 mph WSW16.1 kmh WSW 15.0 mph24.1 kmh 30.35 in1027.8 mb 0.00 in0.0 mm 0.00 in0.0 mm 0.02 in0.5 mm
07:45 PM 31.0°F-0.6°C 24.3°F-4.3°C 76% 10.0 mph WSW16.1 kmh WSW 15.0 mph24.1 kmh 30.34 in1027.4 mb 0.00 in0.0 mm 0.00 in0.0 mm 0.02 in0.5 mm
08:00 PM 31.1°F-0.5°C 24.4°F-4.2°C 76% 14.0 mph WSW22.5 kmh WSW 15.0 mph24.1 kmh 30.34 in1027.4 mb 0.00 in0.0 mm 0.00 in0.0 mm 0.02 in0.5 mm
08:15 PM 30.8°F-0.7°C 23.8°F-4.6°C 75% 14.0 mph WSW22.5 kmh WSW 18.0 mph29.0 kmh 30.34 in1027.4 mb 0.00 in0.0 mm 0.00 in0.0 mm 0.02 in0.5 mm
08:30 PM 30.6°F-0.8°C 24.0°F-4.4°C 76% 13.0 mph W20.9 kmh W 16.0 mph25.7 kmh 30.33 in1027.1 mb 0.00 in0.0 mm 0.00 in0.0 mm 0.02 in0.5 mm
08:45 PM 30.7°F-0.7°C 23.7°F-4.6°C 75% 13.0 mph WSW20.9 kmh WSW 14.0 mph22.5 kmh 30.32 in1026.8 mb 0.00 in0.0 mm 0.00 in0.0 mm 0.02 in0.5 mm
09:00 PM 30.4°F-0.9°C 23.4°F-4.8°C 75% 9.0 mph W14.5 kmh W 14.0 mph22.5 kmh 30.31 in1026.4 mb 0.00 in0.0 mm 0.00 in0.0 mm 0.02 in0.5 mm
09:15 PM 30.4°F-0.9°C 23.8°F-4.6°C 76% 11.0 mph WSW17.7 kmh WSW 15.0 mph24.1 kmh 30.30 in1026.1 mb 0.00 in0.0 mm 0.00 in0.0 mm 0.02 in0.5 mm
09:30 PM 30.3°F-0.9°C 23.7°F-4.6°C 76% 11.0 mph WSW17.7 kmh WSW 16.0 mph25.7 kmh 30.30 in1026.1 mb 0.00 in0.0 mm 0.00 in0.0 mm 0.02 in0.5 mm
09:45 PM 30.1°F-1.1°C 23.2°F-4.9°C 75% 11.0 mph WSW17.7 kmh WSW 17.0 mph27.4 kmh 30.30 in1026.1 mb 0.00 in0.0 mm 0.00 in0.0 mm 0.02 in0.5 mm
10:00 PM 30.2°F-1.0°C 24.2°F-4.3°C 78% 13.0 mph WSW20.9 kmh WSW 16.0 mph25.7 kmh 30.30 in1026.1 mb 0.00 in0.0 mm 0.00 in0.0 mm 0.02 in0.5 mm
10:15 PM 29.9°F-1.2°C 23.3°F-4.8°C 76% 9.0 mph WSW14.5 kmh WSW 14.0 mph22.5 kmh 30.29 in1025.7 mb 0.00 in0.0 mm 0.00 in0.0 mm 0.02 in0.5 mm
10:30 PM 29.9°F-1.2°C 23.6°F-4.7°C 77% 10.0 mph WSW16.1 kmh WSW 13.0 mph20.9 kmh 30.28 in1025.4 mb 0.00 in0.0 mm 0.00 in0.0 mm 0.02 in0.5 mm
10:45 PM 30.2°F-1.0°C 24.5°F-4.2°C 79% 10.0 mph WSW16.1 kmh WSW 12.0 mph19.3 kmh 30.27 in1025.1 mb 0.00 in0.0 mm 0.00 in0.0 mm 0.02 in0.5 mm
11:00 PM 30.1°F-1.1°C 24.7°F-4.1°C 80% 13.0 mph WSW20.9 kmh WSW 14.0 mph22.5 kmh 30.27 in1025.1 mb 0.00 in0.0 mm 0.00 in0.0 mm 0.02 in0.5 mm
11:15 PM 30.3°F-0.9°C 24.9°F-3.9°C 80% 11.0 mph WSW17.7 kmh WSW 15.0 mph24.1 kmh 30.26 in1024.7 mb 0.00 in0.0 mm 0.00 in0.0 mm 0.02 in0.5 mm
11:30 PM 30.5°F-0.8°C 26.3°F-3.2°C 84% 10.0 mph WSW16.1 kmh WSW 16.0 mph25.7 kmh 30.26 in1024.7 mb 0.00 in0.0 mm 0.00 in0.0 mm 0.02 in0.5 mm
11:45 PM 30.4°F-0.9°C 25.3°F-3.7°C 81% 12.0 mph WSW19.3 kmh WSW 14.0 mph22.5 kmh 30.25 in1024.4 mb 0.00 in0.0 mm 0.00 in0.0 mm 0.02 in0.5 mm